createdAt,value
2018-03-30T00:00:48.813Z,99744.23
2018-03-30T00:03:16.443Z,99742.02
2018-03-30T00:05:44.071Z,99744.13
2018-03-30T00:08:11.697Z,99742.47
2018-03-30T00:10:44.826Z,99745.46
2018-03-30T00:13:12.381Z,99749.72
2018-03-30T00:15:39.946Z,99749.71
2018-03-30T00:18:07.502Z,99738.72
2018-03-30T00:20:35.185Z,99741.47
2018-03-30T00:23:02.809Z,99744.64
2018-03-30T00:25:30.426Z,99741.22
2018-03-30T00:27:57.995Z,99745.78
2018-03-30T00:30:25.558Z,99747.51
2018-03-30T00:32:53.126Z,99758.33
2018-03-30T00:35:20.700Z,99754.52
2018-03-30T00:37:48.306Z,99757.99
2018-03-30T00:40:15.866Z,99754.90
2018-03-30T00:42:43.482Z,99757.45
2018-03-30T00:45:11.103Z,99763.22
2018-03-30T00:47:38.719Z,99760.93
2018-03-30T00:50:06.286Z,99759.28
2018-03-30T00:52:33.849Z,99755.43
2018-03-30T00:55:01.514Z,99754.28
2018-03-30T00:57:29.088Z,99750.08
2018-03-30T00:59:56.720Z,99754.59
2018-03-30T01:02:24.316Z,99751.75
2018-03-30T01:04:51.938Z,99754.25
2018-03-30T01:07:19.505Z,99756.95
2018-03-30T01:09:47.130Z,99758.09
2018-03-30T01:12:14.737Z,99756.41
2018-03-30T01:14:42.308Z,99757.06
2018-03-30T01:17:09.872Z,99757.66
2018-03-30T01:19:37.510Z,99762.92
2018-03-30T01:22:05.066Z,99760.66
2018-03-30T01:24:32.634Z,99769.66
2018-03-30T01:27:00.262Z,99771.00
2018-03-30T01:29:27.870Z,99769.59
2018-03-30T01:31:55.490Z,99767.09
2018-03-30T01:34:23.051Z,99767.66
2018-03-30T01:36:50.680Z,99770.75
2018-03-30T01:39:18.238Z,99777.50
2018-03-30T01:41:45.863Z,99778.33
2018-03-30T01:44:13.418Z,99786.25
2018-03-30T01:46:41.038Z,99783.09
2018-03-30T01:49:08.597Z,99786.48
2018-03-30T01:51:36.172Z,99789.95
2018-03-30T01:54:03.746Z,99790.52
2018-03-30T01:56:31.310Z,99783.19
2018-03-30T01:58:58.907Z,99788.58
2018-03-30T02:01:26.526Z,99789.23
2018-03-30T02:03:54.138Z,99788.40
2018-03-30T02:06:21.698Z,99793.45
2018-03-30T02:08:49.301Z,99784.79
2018-03-30T02:11:16.927Z,99785.99
2018-03-30T02:13:44.543Z,99791.66
2018-03-30T02:16:12.118Z,99791.52
2018-03-30T02:18:39.732Z,99803.52
2018-03-30T02:21:07.411Z,99805.80
2018-03-30T02:23:35.026Z,99803.32
2018-03-30T02:26:02.586Z,99807.33
2018-03-30T02:28:30.153Z,99808.90
2018-03-30T02:30:57.770Z,99809.08
2018-03-30T02:33:25.349Z,99809.14
2018-03-30T02:35:52.910Z,99805.88
2018-03-30T02:38:20.533Z,99805.25
2018-03-30T02:40:48.094Z,99809.66
2018-03-30T02:43:15.665Z,99803.84
2018-03-30T02:45:43.275Z,99812.61
2018-03-30T02:48:10.900Z,99812.09
2018-03-30T02:50:38.471Z,99810.13
2018-03-30T02:53:06.050Z,99816.27
2018-03-30T02:55:33.667Z,99816.83
2018-03-30T02:58:01.247Z,99807.98
2018-03-30T03:00:28.874Z,99815.39
2018-03-30T03:02:56.550Z,99823.53
2018-03-30T03:05:24.128Z,99825.49
2018-03-30T03:07:51.715Z,99834.27
2018-03-30T03:10:19.296Z,99832.83
2018-03-30T03:12:46.982Z,99833.39
2018-03-30T03:15:14.542Z,99840.82
2018-03-30T03:17:42.111Z,99837.59
2018-03-30T03:20:09.738Z,99834.62
2018-03-30T03:22:37.302Z,99843.45
2018-03-30T03:25:04.870Z,99840.69
2018-03-30T03:27:32.445Z,99851.42
2018-03-30T03:30:00.136Z,99847.91
2018-03-30T03:32:27.706Z,99850.53
2018-03-30T03:34:55.266Z,99850.99
2018-03-30T03:37:22.890Z,99861.45
2018-03-30T03:39:50.518Z,99865.97
2018-03-30T03:42:18.089Z,99865.19
2018-03-30T03:44:45.646Z,99861.78
2018-03-30T03:47:13.323Z,99869.66
2018-03-30T03:49:40.890Z,99875.95
2018-03-30T03:52:08.454Z,99876.40
2018-03-30T03:54:36.029Z,99878.34
2018-03-30T03:57:03.595Z,99881.44
2018-03-30T03:59:31.165Z,99877.15
2018-03-30T04:01:58.721Z,99876.01
2018-03-30T04:04:26.342Z,99876.22
2018-03-30T04:06:53.902Z,99872.36
2018-03-30T04:09:21.522Z,99871.61
2018-03-30T04:11:49.105Z,99870.33
2018-03-30T04:14:16.674Z,99870.23
2018-03-30T04:16:44.395Z,99864.95
2018-03-30T04:19:11.950Z,99859.17
2018-03-30T04:21:39.577Z,99857.31
2018-03-30T04:24:07.170Z,99853.63
2018-03-30T04:26:34.739Z,99860.28
2018-03-30T04:29:02.317Z,99849.62
2018-03-30T04:31:29.903Z,99850.09
2018-03-30T04:33:57.535Z,99857.64
2018-03-30T04:36:25.177Z,99857.77
2018-03-30T04:38:52.790Z,99861.85
2018-03-30T04:41:20.350Z,99869.41
2018-03-30T04:43:47.914Z,99875.08
2018-03-30T04:46:15.486Z,99877.67
2018-03-30T04:48:43.045Z,99877.63
2018-03-30T04:51:10.680Z,99873.75
2018-03-30T04:53:38.298Z,99879.94
2018-03-30T04:56:05.962Z,99884.70
2018-03-30T04:58:33.557Z,99887.19
2018-03-30T05:01:01.183Z,99886.04
2018-03-30T05:03:28.770Z,99881.72
2018-03-30T05:05:56.334Z,99882.22
2018-03-30T05:08:23.906Z,99886.63
2018-03-30T05:10:51.530Z,99889.45
2018-03-30T05:13:19.191Z,99897.97
2018-03-30T05:15:46.779Z,99894.39
2018-03-30T05:18:14.431Z,99895.05
2018-03-30T05:20:42.138Z,99897.36
2018-03-30T05:23:09.794Z,99895.89
2018-03-30T05:25:37.422Z,99896.20
2018-03-30T05:28:05.026Z,99903.38
2018-03-30T05:30:32.591Z,99903.95
2018-03-30T05:33:00.223Z,99907.26
2018-03-30T05:35:27.800Z,99904.66
2018-03-30T05:37:55.453Z,99907.62
2018-03-30T05:40:23.017Z,99910.66
2018-03-30T05:42:50.634Z,99912.09
2018-03-30T05:45:18.194Z,99926.14
2018-03-30T05:47:45.757Z,99926.23
2018-03-30T05:50:13.399Z,99925.88
2018-03-30T05:52:41.022Z,99929.76
2018-03-30T05:55:08.664Z,99927.95
2018-03-30T05:57:36.234Z,99937.67
2018-03-30T06:00:03.934Z,99935.25
2018-03-30T06:02:31.497Z,99935.94
2018-03-30T06:04:59.167Z,99932.02
2018-03-30T06:07:26.799Z,99940.37
2018-03-30T06:09:54.422Z,99941.44
2018-03-30T06:12:22.002Z,99945.27
2018-03-30T06:14:49.582Z,99941.41
2018-03-30T06:17:17.270Z,99941.16
2018-03-30T06:19:44.836Z,99950.53
2018-03-30T06:22:12.401Z,99950.63
2018-03-30T06:24:40.040Z,99958.01
2018-03-30T06:27:07.684Z,99948.95
2018-03-30T06:29:35.259Z,99949.58
2018-03-30T06:32:02.918Z,99940.78
2018-03-30T06:34:30.546Z,99941.83
2018-03-30T06:36:58.119Z,99945.59
2018-03-30T06:39:25.689Z,99945.63
2018-03-30T06:41:53.266Z,99951.66
2018-03-30T06:44:20.935Z,99955.86
2018-03-30T06:46:48.615Z,99954.69
2018-03-30T06:49:16.173Z,99963.37
2018-03-30T06:51:43.795Z,99960.63
2018-03-30T06:54:11.402Z,99960.98
2018-03-30T06:56:38.965Z,99961.82
2018-03-30T06:59:06.539Z,99967.91
2018-03-30T07:01:34.167Z,99968.47
2018-03-30T07:04:01.794Z,99969.66
2018-03-30T07:06:29.430Z,99975.38
2018-03-30T07:08:57.055Z,99975.12
2018-03-30T07:11:24.689Z,99975.53
2018-03-30T07:13:52.254Z,99974.80
2018-03-30T07:16:19.861Z,99976.76
2018-03-30T07:18:47.484Z,99983.05
2018-03-30T07:21:15.106Z,99980.38
2018-03-30T07:23:42.731Z,99981.30
2018-03-30T07:26:10.359Z,99990.27
2018-03-30T07:28:37.938Z,99974.56
2018-03-30T07:31:05.505Z,99975.28
2018-03-30T07:33:33.074Z,99978.76
2018-03-30T07:36:00.641Z,99986.16
2018-03-30T07:38:28.267Z,99991.47
2018-03-30T07:40:55.844Z,99993.05
2018-03-30T07:43:23.405Z,99999.69
2018-03-30T07:45:50.977Z,99990.69
2018-03-30T07:48:18.603Z,99994.09
2018-03-30T07:50:46.165Z,99995.89
2018-03-30T07:53:13.725Z,99995.18
2018-03-30T07:55:41.398Z,99985.92
2018-03-30T07:58:08.954Z,99986.91
2018-03-30T08:00:36.575Z,99984.58
2018-03-30T08:03:04.142Z,99989.17
2018-03-30T08:05:31.701Z,99987.56
2018-03-30T08:07:59.335Z,99983.34
2018-03-30T08:10:26.893Z,99981.05
2018-03-30T08:12:54.534Z,99981.66
2018-03-30T08:15:22.093Z,99986.75
2018-03-30T08:17:49.712Z,99984.82
2018-03-30T08:20:17.346Z,99986.04
2018-03-30T08:22:44.914Z,99985.73
2018-03-30T08:25:12.490Z,99987.23
2018-03-30T08:27:40.118Z,99991.38
2018-03-30T08:30:07.761Z,99989.89
2018-03-30T08:32:35.327Z,99983.88
2018-03-30T08:35:02.946Z,99983.08
2018-03-30T08:37:30.514Z,99990.80
2018-03-30T08:39:58.078Z,99983.72
2018-03-30T08:42:25.646Z,99985.73
2018-03-30T08:44:53.205Z,99990.31
2018-03-30T08:47:20.967Z,99985.23
2018-03-30T08:49:48.530Z,99990.47
2018-03-30T08:52:16.151Z,99984.47
2018-03-30T08:54:43.718Z,99984.47
2018-03-30T08:57:11.278Z,99980.36
2018-03-30T08:59:38.907Z,99974.09
2018-03-30T09:02:06.504Z,99977.05
2018-03-30T09:04:34.149Z,99980.66
2018-03-30T09:07:01.706Z,99976.30
2018-03-30T09:09:29.262Z,99976.72
2018-03-30T09:11:56.890Z,99976.50
2018-03-30T09:14:24.449Z,99979.21
2018-03-30T09:16:52.028Z,99968.78
2018-03-30T09:19:19.653Z,99968.34
2018-03-30T09:21:47.305Z,99969.36
2018-03-30T09:24:14.975Z,99957.64
2018-03-30T09:26:42.534Z,99954.70
2018-03-30T09:29:10.102Z,99960.69
2018-03-30T09:31:37.755Z,99955.72
2018-03-30T09:34:05.324Z,99953.20
2018-03-30T09:36:32.883Z,99959.81
2018-03-30T09:39:00.512Z,99960.69
2018-03-30T09:41:28.065Z,99950.39
2018-03-30T09:43:55.618Z,99955.19
2018-03-30T09:46:23.185Z,99951.59
2018-03-30T09:48:50.846Z,99945.28
2018-03-30T09:51:18.532Z,99939.37
2018-03-30T09:53:46.155Z,99936.02
2018-03-30T09:56:13.830Z,99929.98
2018-03-30T09:58:41.385Z,99926.41
2018-03-30T10:01:14.672Z,99915.31
2018-03-30T10:03:42.270Z,99916.94
2018-03-30T10:06:09.831Z,99910.75
2018-03-30T10:08:37.393Z,99918.22
2018-03-30T10:11:04.999Z,99918.74
2018-03-30T10:13:32.582Z,99912.94
2018-03-30T10:16:00.141Z,99918.72
2018-03-30T10:18:27.772Z,99914.68
2018-03-30T10:20:55.345Z,99920.31
2018-03-30T10:23:22.915Z,99908.86
2018-03-30T10:25:50.487Z,99917.55
2018-03-30T10:28:18.069Z,99913.33
2018-03-30T10:30:45.642Z,99911.13
2018-03-30T10:33:13.235Z,99900.06
2018-03-30T10:35:40.964Z,99898.01
2018-03-30T10:38:08.546Z,99891.59
2018-03-30T10:40:36.176Z,99892.31
2018-03-30T10:43:03.741Z,99888.38
2018-03-30T10:45:31.315Z,99886.41
2018-03-30T10:47:58.893Z,99883.22
2018-03-30T10:50:26.507Z,99882.23
2018-03-30T10:52:54.123Z,99880.19
2018-03-30T10:55:21.752Z,99881.75
2018-03-30T10:57:49.320Z,99886.20
2018-03-30T11:00:16.897Z,99872.89
2018-03-30T11:02:44.548Z,99883.75
2018-03-30T11:05:12.302Z,99874.25
2018-03-30T11:07:39.857Z,99872.74
2018-03-30T11:10:07.488Z,99881.30
2018-03-30T11:12:35.053Z,99877.88
2018-03-30T11:15:02.654Z,99876.14
2018-03-30T11:17:30.252Z,99871.09
2018-03-30T11:19:57.830Z,99884.28
2018-03-30T11:22:25.472Z,99886.07
2018-03-30T11:24:53.030Z,99882.77
2018-03-30T11:27:20.664Z,99872.77
2018-03-30T11:29:48.238Z,99872.19
2018-03-30T11:32:15.811Z,99867.39
2018-03-30T11:34:43.377Z,99869.26
2018-03-30T11:37:10.934Z,99863.05
2018-03-30T11:39:38.505Z,99865.16
2018-03-30T11:42:06.125Z,99854.53
2018-03-30T11:44:33.750Z,99856.19
2018-03-30T11:47:01.312Z,99853.34
2018-03-30T11:49:28.874Z,99841.55
2018-03-30T11:51:56.441Z,99832.77
2018-03-30T11:54:24.001Z,99828.27
2018-03-30T11:56:51.566Z,99835.22
2018-03-30T11:59:19.121Z,99827.14
2018-03-30T12:01:46.792Z,99828.08
2018-03-30T12:04:14.351Z,99826.84
2018-03-30T12:06:41.906Z,99825.26
2018-03-30T12:09:09.538Z,99825.40
2018-03-30T12:11:37.162Z,99820.44
2018-03-30T12:14:04.852Z,99817.06
2018-03-30T12:16:32.409Z,99819.11
2018-03-30T12:18:59.966Z,99811.72
2018-03-30T12:21:27.546Z,99808.70
2018-03-30T12:23:55.118Z,99803.69
2018-03-30T12:26:22.730Z,99802.42
2018-03-30T12:28:50.351Z,99805.28
2018-03-30T12:31:17.976Z,99803.77
2018-03-30T12:33:45.545Z,99802.97
2018-03-30T12:36:13.119Z,99791.80
2018-03-30T12:38:40.742Z,99784.61
2018-03-30T12:41:08.299Z,99787.11
2018-03-30T12:43:35.865Z,99784.00
2018-03-30T12:46:03.550Z,99779.22
2018-03-30T12:48:31.175Z,99772.26
2018-03-30T12:50:58.739Z,99775.74
2018-03-30T12:53:26.379Z,99778.70
2018-03-30T12:55:53.942Z,99783.34
2018-03-30T12:58:21.512Z,99790.27
2018-03-30T13:00:49.144Z,99782.06
2018-03-30T13:03:16.767Z,99783.66
2018-03-30T13:05:44.338Z,99778.55
2018-03-30T13:08:11.953Z,99771.73
2018-03-30T13:10:39.630Z,99770.95
2018-03-30T13:13:07.190Z,99766.21
2018-03-30T13:15:34.768Z,99761.70
2018-03-30T13:18:02.403Z,99758.59
2018-03-30T13:20:29.972Z,99761.23
2018-03-30T13:22:57.542Z,99750.88
2018-03-30T13:25:25.159Z,99756.36
2018-03-30T13:27:52.836Z,99751.48
2018-03-30T13:30:20.415Z,99757.80
2018-03-30T13:32:47.970Z,99757.56
2018-03-30T13:35:15.556Z,99747.95
2018-03-30T13:37:43.126Z,99745.91
2018-03-30T13:40:10.753Z,99740.11
2018-03-30T13:42:38.319Z,99739.95
2018-03-30T13:45:05.887Z,99738.73
2018-03-30T13:47:33.462Z,99735.83
2018-03-30T13:50:01.029Z,99739.34
2018-03-30T13:52:47.363Z,99730.06
2018-03-30T13:55:18.729Z,99733.22
2018-03-30T14:01:05.078Z,99725.83
2018-03-30T14:03:45.394Z,99727.81
2018-03-30T14:09:18.374Z,99721.62
2018-03-30T14:11:46.940Z,99718.05
2018-03-30T14:14:14.572Z,99717.72
2018-03-30T14:16:46.730Z,99713.94
2018-03-30T14:19:21.980Z,99715.86
2018-03-30T14:25:07.010Z,99726.98
2018-03-30T14:30:47.501Z,99712.59
2018-03-30T14:33:23.965Z,99710.20
2018-03-30T14:36:07.322Z,99707.66
2018-03-30T14:38:34.958Z,99710.69
2018-03-30T14:41:02.616Z,99708.16
2018-03-30T14:43:31.010Z,99706.04
2018-03-30T14:48:58.477Z,99707.89
2018-03-30T14:51:47.818Z,99704.48
2018-03-30T14:54:20.179Z,99703.89
2018-03-30T15:00:00.308Z,99702.15
2018-03-30T15:02:29.491Z,99703.27
2018-03-30T15:05:02.738Z,99702.02
2018-03-30T15:07:33.365Z,99707.86
2018-03-30T15:10:05.949Z,99699.30
2018-03-30T15:12:42.672Z,99698.91
2018-03-30T15:15:17.782Z,99701.08
2018-03-30T15:17:49.095Z,99702.61
2018-03-30T15:20:34.027Z,99705.34
2018-03-30T15:23:11.590Z,99699.77
2018-03-30T15:25:44.978Z,99693.80
2018-03-30T15:28:14.239Z,99685.60
2018-03-30T15:30:42.734Z,99684.08
2018-03-30T15:33:16.077Z,99685.97
2018-03-30T15:35:43.710Z,99691.44
2018-03-30T15:38:11.277Z,99692.22
2018-03-30T15:40:39.011Z,99690.75
2018-03-30T15:43:09.849Z,99692.33
2018-03-30T15:45:44.270Z,99689.16
2018-03-30T15:48:11.849Z,99696.87
2018-03-30T15:50:39.508Z,99693.83
2018-03-30T15:53:07.218Z,99696.22
2018-03-30T15:55:34.794Z,99693.59
2018-03-30T15:58:02.390Z,99697.72
2018-03-30T16:00:30.037Z,99704.50
2018-03-30T16:02:57.654Z,99703.28
2018-03-30T16:05:25.222Z,99708.23
2018-03-30T16:07:52.865Z,99710.70
2018-03-30T16:10:33.199Z,99714.38
2018-03-30T16:13:00.834Z,99719.00
2018-03-30T16:15:28.410Z,99719.59
2018-03-30T16:17:55.982Z,99724.69
2018-03-30T16:20:23.018Z,99718.22
2018-03-30T16:22:50.046Z,99718.03
2018-03-30T16:25:17.127Z,99726.09
2018-03-30T16:27:44.153Z,99730.48
2018-03-30T16:30:11.454Z,99730.76
2018-03-30T16:32:38.750Z,99733.97
2018-03-30T16:35:05.837Z,99739.41
2018-03-30T16:37:32.870Z,99743.05
2018-03-30T16:39:59.913Z,99740.34
2018-03-30T16:42:27.059Z,99743.02
2018-03-30T16:44:54.090Z,99745.75
2018-03-30T16:47:21.176Z,99755.38
2018-03-30T16:49:48.212Z,99742.20
2018-03-30T16:52:15.243Z,99756.94
2018-03-30T16:54:42.278Z,99759.22
2018-03-30T16:57:09.301Z,99757.22
2018-03-30T16:59:36.491Z,99761.77
2018-03-30T17:02:03.510Z,99761.17
2018-03-30T17:04:30.575Z,99759.73
2018-03-30T17:06:57.610Z,99768.20
2018-03-30T17:09:24.641Z,99758.90
2018-03-30T17:11:51.741Z,99763.64
2018-03-30T17:14:18.833Z,99764.90
2018-03-30T17:16:45.910Z,99766.20
2018-03-30T17:19:13.004Z,99767.48
2018-03-30T17:21:40.035Z,99764.13
2018-03-30T17:24:07.126Z,99770.00
2018-03-30T17:26:34.154Z,99762.11
2018-03-30T17:29:01.247Z,99764.55
2018-03-30T17:31:28.338Z,99763.25
2018-03-30T17:33:55.440Z,99777.78
2018-03-30T17:36:22.463Z,99771.92
2018-03-30T17:38:49.554Z,99774.06
2018-03-30T17:41:16.599Z,99773.65
2018-03-30T17:43:43.627Z,99782.64
2018-03-30T17:46:10.715Z,99779.97
2018-03-30T17:48:37.816Z,99788.66
2018-03-30T17:51:05.020Z,99787.49
2018-03-30T17:53:32.099Z,99783.38
2018-03-30T17:55:59.126Z,99785.20
2018-03-30T17:58:26.209Z,99786.09
2018-03-30T18:00:53.277Z,99781.04
2018-03-30T18:03:20.395Z,99788.20
2018-03-30T18:05:47.543Z,99793.69
2018-03-30T18:08:14.635Z,99790.33
2018-03-30T18:10:41.662Z,99797.67
2018-03-30T18:13:08.684Z,99788.80
2018-03-30T18:15:35.722Z,99802.77
2018-03-30T18:18:02.809Z,99804.91
2018-03-30T18:20:29.935Z,99801.66
2018-03-30T18:22:57.015Z,99805.09
2018-03-30T18:27:56.509Z,99803.38
2018-03-30T18:30:23.605Z,99811.77
2018-03-30T18:32:50.731Z,99807.44
2018-03-30T18:35:17.763Z,99807.59
2018-03-30T18:37:44.847Z,99813.11
2018-03-30T18:40:11.943Z,99815.75
2018-03-30T18:42:40.252Z,99810.19
2018-03-30T18:45:07.302Z,99814.02
2018-03-30T18:47:34.379Z,99814.00
2018-03-30T18:50:01.424Z,99819.25
2018-03-30T18:52:28.467Z,99815.47
2018-03-30T18:54:55.608Z,99814.95
2018-03-30T18:57:22.720Z,99817.08
2018-03-30T18:59:49.740Z,99824.86
2018-03-30T19:02:16.779Z,99824.66
2018-03-30T19:04:43.844Z,99821.53
2018-03-30T19:07:10.885Z,99818.90
2018-03-30T19:09:37.914Z,99828.06
2018-03-30T19:12:04.996Z,99819.72
2018-03-30T19:14:32.898Z,99823.98
2018-03-30T19:16:59.959Z,99826.27
2018-03-30T19:19:27.012Z,99819.16
2018-03-30T19:21:54.111Z,99818.79
2018-03-30T19:24:21.960Z,99817.80
2018-03-30T19:26:48.977Z,99806.16
2018-03-30T19:29:16.067Z,99801.25
2018-03-30T19:31:43.152Z,99806.16
2018-03-30T19:34:10.174Z,99800.36
2018-03-30T19:36:37.232Z,99798.33
2018-03-30T19:39:04.257Z,99790.61
2018-03-30T19:41:31.350Z,99787.42
2018-03-30T19:43:58.430Z,99802.52
2018-03-30T19:46:25.539Z,99800.83
2018-03-30T19:48:52.626Z,99793.73
2018-03-30T19:51:19.664Z,99789.63
2018-03-30T19:53:46.745Z,99794.00
2018-03-30T19:56:13.802Z,99787.69
2018-03-30T19:58:40.928Z,99785.27
2018-03-30T20:01:07.986Z,99790.94
2018-03-30T20:03:35.134Z,99793.16
2018-03-30T20:06:02.163Z,99790.28
2018-03-30T20:08:29.194Z,99786.97
2018-03-30T20:10:56.234Z,99788.77
2018-03-30T20:13:23.263Z,99786.75
2018-03-30T20:15:50.398Z,99790.31
2018-03-30T20:18:17.482Z,99790.81
2018-03-30T20:20:44.518Z,99790.50
2018-03-30T20:23:11.561Z,99796.86
2018-03-30T20:25:38.649Z,99793.02
2018-03-30T20:28:05.744Z,99787.36
2018-03-30T20:30:32.845Z,99792.44
2018-03-30T20:32:59.869Z,99792.59
2018-03-30T20:35:26.916Z,99789.36
2018-03-30T20:37:53.938Z,99787.50
2018-03-30T20:40:21.031Z,99791.58
2018-03-30T20:42:48.046Z,99793.69
2018-03-30T20:45:15.095Z,99798.98
2018-03-30T20:47:42.181Z,99788.59
2018-03-30T20:50:09.266Z,99792.04
2018-03-30T20:52:36.296Z,99790.14
2018-03-30T20:55:03.322Z,99794.94
2018-03-30T20:57:30.410Z,99790.14
2018-03-30T20:59:57.426Z,99779.50
2018-03-30T21:02:24.522Z,99780.15
2018-03-30T21:04:51.542Z,99785.36
2018-03-30T21:07:18.705Z,99794.10
2018-03-30T21:09:45.725Z,99789.31
2018-03-30T21:12:12.750Z,99794.94
2018-03-30T21:14:39.778Z,99792.66
2018-03-30T21:17:06.805Z,99792.03
2018-03-30T21:19:33.830Z,99790.56
2018-03-30T21:22:00.926Z,99789.12
2018-03-30T21:24:28.082Z,99789.52
2018-03-30T21:26:55.105Z,99788.91
2018-03-30T21:29:22.221Z,99787.34
2018-03-30T21:31:49.258Z,99783.05
2018-03-30T21:34:16.281Z,99784.33
2018-03-30T21:36:43.358Z,99787.34
2018-03-30T21:39:10.402Z,99783.91
2018-03-30T21:41:37.548Z,99787.24
2018-03-30T21:44:04.566Z,99787.66
2018-03-30T21:46:31.652Z,99781.38
2018-03-30T21:48:58.738Z,99780.73
2018-03-30T21:51:25.758Z,99778.95
2018-03-30T21:53:52.847Z,99780.08
2018-03-30T21:56:19.865Z,99776.23
2018-03-30T21:58:46.952Z,99769.41
2018-03-30T22:01:13.978Z,99775.83
2018-03-30T22:03:40.994Z,99775.91
2018-03-30T22:06:08.029Z,99781.13
2018-03-30T22:08:35.054Z,99775.20
2018-03-30T22:11:02.087Z,99773.88
2018-03-30T22:13:29.111Z,99777.61
2018-03-30T22:15:56.246Z,99780.13
2018-03-30T22:18:23.304Z,99773.26
2018-03-30T22:20:50.342Z,99779.69
2018-03-30T22:23:17.370Z,99775.28
2018-03-30T22:25:44.400Z,99777.48
2018-03-30T22:28:11.486Z,99771.56
2018-03-30T22:30:38.566Z,99773.03
2018-03-30T22:33:05.694Z,99773.69
2018-03-30T22:35:32.718Z,99770.88
2018-03-30T22:37:59.795Z,99776.07
2018-03-30T22:40:26.828Z,99776.39
2018-03-30T22:42:53.910Z,99775.14
2018-03-30T22:45:20.943Z,99773.39
2018-03-30T22:47:47.967Z,99757.44
2018-03-30T22:50:15.105Z,99767.55
2018-03-30T22:52:42.183Z,99760.77
2018-03-30T22:55:09.211Z,99761.61
2018-03-30T22:57:36.234Z,99758.97
2018-03-30T23:00:03.260Z,99760.95
2018-03-30T23:02:30.350Z,99756.59
2018-03-30T23:04:57.373Z,99745.54
2018-03-30T23:07:24.464Z,99743.16
2018-03-30T23:09:51.483Z,99747.75
2018-03-30T23:12:18.523Z,99741.89
2018-03-30T23:14:45.564Z,99738.66
2018-03-30T23:17:12.600Z,99743.48
2018-03-30T23:19:39.688Z,99740.59
2018-03-30T23:22:06.698Z,99740.36
2018-03-30T23:24:33.765Z,99742.04
2018-03-30T23:27:00.801Z,99733.94
2018-03-30T23:29:27.888Z,99736.22
2018-03-30T23:31:54.928Z,99731.94
2018-03-30T23:34:21.946Z,99729.34
2018-03-30T23:36:49.003Z,99727.34
2018-03-30T23:39:16.078Z,99727.85
2018-03-30T23:41:43.154Z,99734.02
2018-03-30T23:44:10.177Z,99729.23
2018-03-30T23:46:37.294Z,99723.08
2018-03-30T23:49:04.329Z,99722.16
2018-03-30T23:51:31.343Z,99716.73
2018-03-30T23:53:58.361Z,99724.36
2018-03-30T23:56:25.441Z,99715.17
2018-03-30T23:58:52.574Z,99707.38
